Terral, Oklahoma
Current Conditions -  °F | °C
As of 7:35 AM on Wednesday 22 Oct 2014 (Local Time) from K0F2 Reporting Station
Haze Haze  
Wind Chill: 57°   Ceiling: Unl
Heat Index: 57°   Visibility: 4mi
Dew Point: 56°   Wind: 5mph
Humidity: 96%   Direction: 140°SE
Pressure: 30.12"   Gusts: NA
Location:  33.9°N, 97.94°W
Report Text: K0F2 221235Z AUTO 14004KT 4SM BR CLR 14/13 A3012 RMK AO2 T01370131
Loading
Personal Weather Stations






























Interactive Weather Map New forecast layout! Learn more

10-Day Weather Forecast

Advertisements
Track Severe Weather on mobile